Terminal Aerodrome Forecast
Issued by NWS Paducah, KY

Home | Current Version | Previous Version | Text Only | Print | Product List | Glossary On
Versions: 1 2 3 4 5 6 7 8 9 10 11 12 13 14
000
FTUS43 KPAH 270031 AAB
TAFPAH
TAF AMD
KPAH 270031Z 2701/2724 22008KT P6SM VCSH BKN025 OVC035
     FM270200 22007KT P6SM SCT025 BKN035
     FM270800 22005KT P6SM SCT009 BKN015
     FM271500 20007KT P6SM SCT025 BKN035=

USA.gov is the U.S. government's official web portal to all federal, state and local government web resources and services.